createdAt,value
2017-07-15T00:00:21.902Z,99.99
2017-07-15T00:01:22.475Z,99.99
2017-07-15T00:02:23.049Z,99.99
2017-07-15T00:03:23.621Z,99.99
2017-07-15T00:04:24.204Z,99.99
2017-07-15T00:05:24.781Z,99.99
2017-07-15T00:06:25.354Z,99.99
2017-07-15T00:07:25.928Z,99.99
2017-07-15T00:08:26.502Z,99.99
2017-07-15T00:09:27.077Z,99.99
2017-07-15T00:10:27.650Z,99.99
2017-07-15T00:11:28.222Z,99.99
2017-07-15T00:12:28.796Z,99.99
2017-07-15T00:13:29.372Z,99.99
2017-07-15T00:14:29.945Z,99.99
2017-07-15T00:15:30.519Z,99.99
2017-07-15T00:16:31.094Z,99.99
2017-07-15T00:17:31.668Z,99.99
2017-07-15T00:18:32.242Z,99.99
2017-07-15T00:19:32.827Z,99.99
2017-07-15T00:20:33.399Z,99.99
2017-07-15T00:21:33.976Z,99.99
2017-07-15T00:22:34.548Z,99.99
2017-07-15T00:23:35.125Z,99.99
2017-07-15T00:24:35.698Z,99.99
2017-07-15T00:25:36.271Z,99.99
2017-07-15T00:26:36.845Z,99.99
2017-07-15T00:27:37.418Z,99.99
2017-07-15T00:28:37.990Z,99.99
2017-07-15T00:29:38.563Z,99.99
2017-07-15T00:30:39.136Z,99.99
2017-07-15T00:31:39.711Z,99.99
2017-07-15T00:32:40.286Z,99.99
2017-07-15T00:33:40.864Z,99.99
2017-07-15T00:34:41.436Z,99.99
2017-07-15T00:35:42.011Z,99.99
2017-07-15T00:36:42.583Z,99.99
2017-07-15T00:37:43.158Z,99.99
2017-07-15T00:38:43.731Z,99.99
2017-07-15T00:39:44.305Z,99.99
2017-07-15T00:40:44.878Z,99.99
2017-07-15T00:41:45.454Z,99.99
2017-07-15T00:42:46.028Z,99.99
2017-07-15T00:43:46.603Z,99.99
2017-07-15T00:44:47.176Z,99.99
2017-07-15T00:45:47.750Z,99.99
2017-07-15T00:46:48.324Z,99.99
2017-07-15T00:47:48.897Z,99.99
2017-07-15T00:48:49.470Z,99.99
2017-07-15T00:49:50.044Z,99.99
2017-07-15T00:50:50.616Z,99.99
2017-07-15T00:51:51.189Z,99.99
2017-07-15T00:52:51.763Z,99.99
2017-07-15T00:53:52.347Z,99.99
2017-07-15T00:54:52.921Z,99.99
2017-07-15T00:55:53.494Z,99.99
2017-07-15T00:56:54.068Z,99.99
2017-07-15T00:57:54.652Z,99.99
2017-07-15T00:58:55.226Z,99.99
2017-07-15T00:59:55.801Z,99.99
2017-07-15T01:00:56.373Z,99.99
2017-07-15T01:01:56.948Z,99.99
2017-07-15T01:02:57.521Z,99.99
2017-07-15T01:03:58.095Z,99.99
2017-07-15T01:04:58.668Z,99.99
2017-07-15T01:05:59.243Z,99.99
2017-07-15T01:06:59.819Z,99.99
2017-07-15T01:08:00.392Z,99.99
2017-07-15T01:09:00.969Z,99.99
2017-07-15T01:10:01.546Z,99.99
2017-07-15T01:11:02.116Z,99.99
2017-07-15T01:12:02.692Z,99.99
2017-07-15T01:13:03.261Z,99.99
2017-07-15T01:14:03.834Z,99.99
2017-07-15T01:15:04.419Z,99.99
2017-07-15T01:16:04.995Z,99.99
2017-07-15T01:17:05.568Z,99.99
2017-07-15T01:18:06.140Z,99.99
2017-07-15T01:19:06.714Z,99.99
2017-07-15T01:20:07.285Z,99.99
2017-07-15T01:21:07.858Z,99.99
2017-07-15T01:22:08.431Z,99.99
2017-07-15T01:23:09.005Z,99.99
2017-07-15T01:24:09.579Z,99.99
2017-07-15T01:25:10.155Z,99.99
2017-07-15T01:26:10.729Z,99.99
2017-07-15T01:27:11.304Z,99.99
2017-07-15T01:28:11.879Z,99.99
2017-07-15T01:29:12.452Z,99.99
2017-07-15T01:30:13.026Z,99.99
2017-07-15T01:31:13.598Z,99.99
2017-07-15T01:32:14.171Z,99.99
2017-07-15T01:33:14.745Z,99.99
2017-07-15T01:34:15.318Z,99.99
2017-07-15T01:35:15.893Z,99.99
2017-07-15T01:36:16.469Z,99.99
2017-07-15T01:37:17.042Z,99.99
2017-07-15T01:38:17.617Z,99.99
2017-07-15T01:39:18.203Z,99.99
2017-07-15T01:40:18.777Z,99.99
2017-07-15T01:41:19.353Z,99.99
2017-07-15T01:42:19.925Z,99.99
2017-07-15T01:43:20.499Z,99.99
2017-07-15T01:44:21.071Z,99.99
2017-07-15T01:45:21.646Z,99.99
2017-07-15T01:46:22.219Z,99.99
2017-07-15T01:47:22.791Z,99.99
2017-07-15T01:48:23.364Z,99.99
2017-07-15T01:49:23.937Z,99.99
2017-07-15T01:50:24.509Z,99.99
2017-07-15T01:51:25.084Z,99.99
2017-07-15T01:52:25.659Z,99.99
2017-07-15T01:53:26.232Z,99.99
2017-07-15T01:54:26.807Z,99.99
2017-07-15T01:55:27.382Z,99.99
2017-07-15T01:56:27.956Z,99.99
2017-07-15T01:57:28.529Z,99.99
2017-07-15T01:58:29.102Z,99.99
2017-07-15T01:59:29.677Z,99.99
2017-07-15T02:00:30.248Z,99.99
2017-07-15T02:01:30.822Z,99.99
2017-07-15T02:02:31.395Z,99.99
2017-07-15T02:03:31.970Z,99.99
2017-07-15T02:04:32.545Z,99.99
2017-07-15T02:05:33.121Z,99.99
2017-07-15T02:06:33.693Z,99.99
2017-07-15T02:07:34.268Z,99.99
2017-07-15T02:08:34.846Z,99.99
2017-07-15T02:09:35.425Z,99.99
2017-07-15T02:10:36.002Z,99.99
2017-07-15T02:11:36.574Z,99.99
2017-07-15T02:12:37.147Z,99.99
2017-07-15T02:13:37.721Z,99.99
2017-07-15T02:14:38.295Z,99.99
2017-07-15T02:15:38.869Z,99.99
2017-07-15T02:16:39.442Z,99.99
2017-07-15T02:17:40.016Z,99.99
2017-07-15T02:18:40.589Z,99.99
2017-07-15T02:19:41.165Z,99.99
2017-07-15T02:20:41.751Z,99.99
2017-07-15T02:21:42.324Z,99.99
2017-07-15T02:22:42.897Z,99.99
2017-07-15T02:23:43.471Z,99.99
2017-07-15T02:24:44.047Z,99.99
2017-07-15T02:25:44.621Z,99.99
2017-07-15T02:26:45.204Z,99.99
2017-07-15T02:27:45.777Z,99.99
2017-07-15T02:28:46.352Z,99.99
2017-07-15T02:29:46.928Z,99.99
2017-07-15T02:30:47.502Z,99.99
2017-07-15T02:31:48.078Z,99.99
2017-07-15T02:32:48.651Z,99.99
2017-07-15T02:33:49.226Z,99.99
2017-07-15T02:34:49.799Z,99.99
2017-07-15T02:35:50.372Z,99.99
2017-07-15T02:36:50.946Z,99.99
2017-07-15T02:37:51.520Z,99.99
2017-07-15T02:38:52.093Z,99.99
2017-07-15T02:39:52.667Z,99.99
2017-07-15T02:40:53.242Z,99.99
2017-07-15T02:41:53.817Z,99.99
2017-07-15T02:42:54.401Z,99.99
2017-07-15T02:43:54.987Z,99.99
2017-07-15T02:44:55.559Z,99.99
2017-07-15T02:45:56.133Z,99.99
2017-07-15T02:46:56.706Z,99.99
2017-07-15T02:47:57.281Z,99.99
2017-07-15T02:48:57.854Z,99.99
2017-07-15T02:49:58.427Z,99.99
2017-07-15T02:50:59.000Z,99.99
2017-07-15T02:51:59.575Z,99.99
2017-07-15T02:53:00.150Z,99.99
2017-07-15T02:54:00.724Z,99.99
2017-07-15T02:55:01.299Z,99.99
2017-07-15T02:56:01.872Z,99.99
2017-07-15T02:57:02.446Z,99.99
2017-07-15T02:58:03.018Z,99.99
2017-07-15T02:59:03.592Z,99.99
2017-07-15T03:00:04.165Z,99.99
2017-07-15T03:01:04.738Z,99.99
2017-07-15T03:02:05.324Z,99.99
2017-07-15T03:03:05.897Z,99.99
2017-07-15T03:04:06.472Z,99.99
2017-07-15T03:05:07.046Z,99.99
2017-07-15T03:06:07.619Z,99.99
2017-07-15T03:07:08.191Z,99.99
2017-07-15T03:08:08.766Z,99.99
2017-07-15T03:09:09.341Z,99.99
2017-07-15T03:10:09.915Z,99.99
2017-07-15T03:11:10.490Z,99.99
2017-07-15T03:12:11.063Z,99.99
2017-07-15T03:13:11.643Z,99.99
2017-07-15T03:14:12.211Z,99.99
2017-07-15T03:15:12.786Z,99.99
2017-07-15T03:16:13.367Z,99.99
2017-07-15T03:17:13.942Z,99.99
2017-07-15T03:18:14.517Z,99.99
2017-07-15T03:19:15.101Z,99.99
2017-07-15T03:20:15.675Z,99.99
2017-07-15T03:21:16.250Z,99.99
2017-07-15T03:22:16.826Z,99.99
2017-07-15T03:23:17.400Z,99.99
2017-07-15T03:24:17.973Z,99.99
2017-07-15T03:25:18.547Z,99.99
2017-07-15T03:26:19.120Z,99.99
2017-07-15T03:27:19.693Z,99.99
2017-07-15T03:28:20.265Z,99.99
2017-07-15T03:29:20.838Z,99.99
2017-07-15T03:30:21.411Z,99.99
2017-07-15T03:31:21.985Z,99.99
2017-07-15T03:32:22.560Z,99.99
2017-07-15T03:33:23.146Z,99.99
2017-07-15T03:34:23.725Z,99.99
2017-07-15T03:35:24.297Z,99.99
2017-07-15T03:36:24.870Z,99.99
2017-07-15T03:37:25.445Z,99.99
2017-07-15T03:38:26.021Z,99.99
2017-07-15T03:39:26.597Z,99.99
2017-07-15T03:40:27.171Z,99.99
2017-07-15T03:41:27.745Z,99.99
2017-07-15T03:42:28.320Z,99.99
2017-07-15T03:43:28.907Z,99.99
2017-07-15T03:44:29.481Z,99.99
2017-07-15T03:45:30.055Z,99.99
2017-07-15T03:46:30.630Z,99.99
2017-07-15T03:47:31.204Z,99.99
2017-07-15T03:48:31.779Z,99.99
2017-07-15T03:49:32.358Z,99.99
2017-07-15T03:50:32.931Z,99.99
2017-07-15T03:51:33.505Z,99.99
2017-07-15T03:52:34.080Z,99.99
2017-07-15T03:53:34.666Z,99.99
2017-07-15T03:54:35.242Z,99.99
2017-07-15T03:55:35.817Z,99.99
2017-07-15T03:56:36.392Z,99.99
2017-07-15T03:57:36.965Z,99.99
2017-07-15T03:58:37.541Z,99.99
2017-07-15T03:59:38.117Z,99.99
2017-07-15T04:00:38.693Z,99.99
2017-07-15T04:01:39.268Z,99.99
2017-07-15T04:02:39.843Z,99.99
2017-07-15T04:03:40.417Z,99.99
2017-07-15T04:04:40.991Z,99.99
2017-07-15T04:05:41.567Z,99.99
2017-07-15T04:06:42.145Z,99.99
2017-07-15T04:07:42.720Z,99.99
2017-07-15T04:08:43.295Z,99.99
2017-07-15T04:09:43.870Z,99.99
2017-07-15T04:10:44.444Z,99.99
2017-07-15T04:11:45.018Z,99.99
2017-07-15T04:12:45.603Z,99.99
2017-07-15T04:13:46.178Z,99.99
2017-07-15T04:14:46.753Z,99.99
2017-07-15T04:15:47.338Z,99.99
2017-07-15T04:16:47.916Z,99.99
2017-07-15T04:17:48.501Z,99.99
2017-07-15T04:18:49.075Z,99.99
2017-07-15T04:19:49.652Z,99.99
2017-07-15T04:20:50.227Z,99.99
2017-07-15T04:21:50.800Z,99.99
2017-07-15T04:22:51.387Z,99.99
2017-07-15T04:23:51.963Z,99.99
2017-07-15T04:24:52.537Z,99.99
2017-07-15T04:25:53.112Z,99.99
2017-07-15T04:26:53.689Z,99.99
2017-07-15T04:27:54.263Z,99.99
2017-07-15T04:28:54.845Z,99.99
2017-07-15T04:29:55.418Z,99.99
2017-07-15T04:30:55.993Z,99.99
2017-07-15T04:31:56.569Z,99.99
2017-07-15T04:32:57.145Z,99.99
2017-07-15T04:33:57.722Z,99.99
2017-07-15T04:34:58.300Z,99.99
2017-07-15T04:35:58.887Z,99.99
2017-07-15T04:36:59.464Z,99.99
2017-07-15T04:38:00.041Z,99.99
2017-07-15T04:39:00.616Z,99.99
2017-07-15T04:40:01.192Z,99.99
2017-07-15T04:41:01.769Z,99.99
2017-07-15T04:42:02.346Z,99.99
2017-07-15T04:43:02.934Z,99.99
2017-07-15T04:44:03.511Z,99.99
2017-07-15T04:45:04.087Z,99.99
2017-07-15T04:46:04.663Z,99.99
2017-07-15T04:47:05.238Z,99.99
2017-07-15T04:48:05.816Z,99.99
2017-07-15T04:49:06.392Z,99.99
2017-07-15T04:50:06.980Z,99.99
2017-07-15T04:51:07.557Z,99.99
2017-07-15T04:52:08.134Z,99.99
2017-07-15T04:53:08.710Z,99.99
2017-07-15T04:54:09.286Z,99.99
2017-07-15T04:55:09.862Z,99.99
2017-07-15T04:56:10.449Z,99.99
2017-07-15T04:57:11.026Z,99.99
2017-07-15T04:58:11.613Z,99.99
2017-07-15T04:59:12.189Z,99.99
2017-07-15T05:00:12.764Z,99.99
2017-07-15T05:01:13.340Z,99.99
2017-07-15T05:02:13.928Z,99.99
2017-07-15T05:03:14.504Z,99.99
2017-07-15T05:04:15.079Z,99.99
2017-07-15T05:05:15.657Z,99.99
2017-07-15T05:06:16.233Z,99.99
2017-07-15T05:07:16.809Z,99.99
2017-07-15T05:08:17.385Z,99.99
2017-07-15T05:09:17.961Z,99.99
2017-07-15T05:10:18.541Z,99.99
2017-07-15T05:11:19.115Z,99.99
2017-07-15T05:12:19.691Z,99.99
2017-07-15T05:13:20.268Z,99.99
2017-07-15T05:14:20.842Z,99.99
2017-07-15T05:15:21.416Z,99.99
2017-07-15T05:16:21.996Z,99.99
2017-07-15T05:17:22.582Z,99.99
2017-07-15T05:18:23.158Z,99.99
2017-07-15T05:19:23.735Z,99.99
2017-07-15T05:20:24.312Z,99.99
2017-07-15T05:21:24.889Z,99.99
2017-07-15T05:22:25.464Z,99.99
2017-07-15T05:23:26.052Z,99.99
2017-07-15T05:24:26.629Z,99.99
2017-07-15T05:25:27.206Z,99.99
2017-07-15T05:26:27.781Z,99.99
2017-07-15T05:27:28.359Z,99.99
2017-07-15T05:28:28.941Z,99.99
2017-07-15T05:29:29.513Z,99.99
2017-07-15T05:30:30.089Z,99.99
2017-07-15T05:31:30.669Z,99.99
2017-07-15T05:32:31.249Z,99.99
2017-07-15T05:33:31.825Z,99.99
2017-07-15T05:34:32.402Z,99.99
2017-07-15T05:35:32.981Z,99.99
2017-07-15T05:36:33.557Z,99.99
2017-07-15T05:37:34.134Z,99.99
2017-07-15T05:38:34.711Z,99.99
2017-07-15T05:39:35.293Z,99.99
2017-07-15T05:40:35.867Z,99.99
2017-07-15T05:41:36.445Z,99.99
2017-07-15T05:42:37.022Z,99.99
2017-07-15T05:43:37.599Z,99.99
2017-07-15T05:44:38.177Z,99.99
2017-07-15T05:45:38.755Z,99.99
2017-07-15T05:46:39.332Z,99.99
2017-07-15T05:47:39.909Z,99.99
2017-07-15T05:48:40.489Z,99.99
2017-07-15T05:49:41.066Z,99.99
2017-07-15T05:50:41.643Z,99.99
2017-07-15T05:51:42.220Z,99.99
2017-07-15T05:52:42.798Z,99.99
2017-07-15T05:53:43.378Z,99.99
2017-07-15T05:54:43.966Z,99.99
2017-07-15T05:55:44.544Z,99.99
2017-07-15T05:56:45.126Z,99.99
2017-07-15T05:57:45.701Z,99.99
2017-07-15T05:58:46.282Z,99.99
2017-07-15T05:59:46.859Z,99.99
2017-07-15T06:00:47.436Z,99.99
2017-07-15T06:01:48.013Z,99.99
2017-07-15T06:02:48.592Z,99.99
2017-07-15T06:03:49.170Z,99.99
2017-07-15T06:04:49.748Z,99.99
2017-07-15T06:05:50.325Z,99.99
2017-07-15T06:06:50.904Z,99.99
2017-07-15T06:07:51.483Z,99.99
2017-07-15T06:08:52.060Z,99.99
2017-07-15T06:09:52.638Z,99.99
2017-07-15T06:10:53.218Z,99.99
2017-07-15T06:11:53.795Z,99.99
2017-07-15T06:12:54.374Z,99.99
2017-07-15T06:13:54.951Z,99.99
2017-07-15T06:14:55.531Z,99.99
2017-07-15T06:15:56.110Z,99.99
2017-07-15T06:16:56.687Z,99.99
2017-07-15T06:17:57.265Z,99.99
2017-07-15T06:18:57.841Z,99.99
2017-07-15T06:19:58.423Z,99.99
2017-07-15T06:20:58.999Z,99.99
2017-07-15T06:21:59.578Z,99.99
2017-07-15T06:23:00.156Z,99.99
2017-07-15T06:24:00.735Z,99.99
2017-07-15T06:25:01.313Z,99.99
2017-07-15T06:26:01.890Z,99.99
2017-07-15T06:27:02.469Z,99.99
2017-07-15T06:28:03.048Z,99.99
2017-07-15T06:29:03.626Z,99.99
2017-07-15T06:30:04.215Z,99.99
2017-07-15T06:31:04.794Z,99.99
2017-07-15T06:32:05.381Z,99.99
2017-07-15T06:33:05.961Z,99.99
2017-07-15T06:34:06.538Z,99.99
2017-07-15T06:35:07.116Z,99.99
2017-07-15T06:36:07.693Z,99.99
2017-07-15T06:37:08.272Z,99.99
2017-07-15T06:38:08.851Z,99.99
2017-07-15T06:39:09.430Z,99.99
2017-07-15T06:40:10.009Z,99.99
2017-07-15T06:41:10.588Z,99.99
2017-07-15T06:42:11.166Z,99.99
2017-07-15T06:43:11.755Z,99.99
2017-07-15T06:44:12.334Z,99.99
2017-07-15T06:45:12.911Z,99.99
2017-07-15T06:46:13.495Z,99.99
2017-07-15T06:47:14.071Z,99.99
2017-07-15T06:48:14.650Z,99.99
2017-07-15T06:49:15.226Z,99.99
2017-07-15T06:50:15.815Z,99.99
2017-07-15T06:51:16.392Z,99.99
2017-07-15T06:52:16.986Z,99.99
2017-07-15T06:53:17.563Z,99.99
2017-07-15T06:54:18.142Z,99.99
2017-07-15T06:55:18.720Z,99.99
2017-07-15T06:56:19.299Z,99.99
2017-07-15T06:57:19.876Z,99.99
2017-07-15T06:58:20.458Z,99.99
2017-07-15T06:59:21.035Z,99.99
2017-07-15T07:00:21.612Z,99.99
2017-07-15T07:01:22.189Z,99.99
2017-07-15T07:02:22.769Z,99.99
2017-07-15T07:03:23.348Z,99.99
2017-07-15T07:04:23.937Z,99.99
2017-07-15T07:05:24.527Z,99.99
2017-07-15T07:06:25.105Z,99.99
2017-07-15T07:07:25.694Z,99.99
2017-07-15T07:08:26.277Z,99.99
2017-07-15T07:09:26.852Z,99.99
2017-07-15T07:10:27.430Z,99.99
2017-07-15T07:11:28.008Z,99.99
2017-07-15T07:12:28.585Z,99.99
2017-07-15T07:13:29.163Z,99.99
2017-07-15T07:14:29.744Z,99.99
2017-07-15T07:15:30.322Z,99.99
2017-07-15T07:16:30.899Z,99.99
2017-07-15T07:17:31.484Z,99.99
2017-07-15T07:18:32.057Z,99.99
2017-07-15T07:19:32.636Z,99.99
2017-07-15T07:20:33.213Z,99.99
2017-07-15T07:21:33.792Z,99.99
2017-07-15T07:22:34.372Z,99.99
2017-07-15T07:23:34.950Z,99.99
2017-07-15T07:24:35.541Z,99.99
2017-07-15T07:25:36.119Z,99.99
2017-07-15T07:26:36.696Z,99.99
2017-07-15T07:27:37.275Z,99.99
2017-07-15T07:28:37.856Z,99.99
2017-07-15T07:29:38.434Z,99.99
2017-07-15T07:30:39.012Z,99.99
2017-07-15T07:31:39.592Z,99.99
2017-07-15T07:32:40.180Z,99.99
2017-07-15T07:33:40.759Z,99.99
2017-07-15T07:34:41.342Z,99.99
2017-07-15T07:35:41.918Z,99.99
2017-07-15T07:36:42.497Z,99.99
2017-07-15T07:37:43.086Z,99.99
2017-07-15T07:38:43.665Z,99.99
2017-07-15T07:39:44.245Z,99.99
2017-07-15T07:40:44.824Z,99.99
2017-07-15T07:41:45.402Z,99.99
2017-07-15T07:42:45.980Z,99.99
2017-07-15T07:43:46.570Z,99.99
2017-07-15T07:44:47.148Z,99.99
2017-07-15T07:45:47.727Z,99.99
2017-07-15T07:46:48.318Z,99.99
2017-07-15T07:47:48.899Z,99.63
2017-07-15T07:48:49.479Z,97.14
2017-07-15T07:49:50.059Z,95.98
2017-07-15T07:50:50.649Z,97.04
2017-07-15T07:51:51.228Z,97.76
2017-07-15T07:52:51.806Z,99.48
2017-07-15T07:53:52.386Z,99.99
2017-07-15T07:54:52.966Z,98.91
2017-07-15T07:55:53.545Z,99.01
2017-07-15T07:56:54.124Z,98.72
2017-07-15T07:57:54.703Z,99.39
2017-07-15T07:58:55.284Z,96.51
2017-07-15T07:59:55.863Z,96.70
2017-07-15T08:00:56.442Z,96.03
2017-07-15T08:01:57.021Z,94.79
2017-07-15T08:02:57.602Z,94.12
2017-07-15T08:03:58.182Z,94.74
2017-07-15T08:04:58.760Z,95.36
2017-07-15T08:05:59.340Z,94.26
2017-07-15T08:06:59.920Z,94.35
2017-07-15T08:08:00.499Z,95.03
2017-07-15T08:09:01.078Z,95.65
2017-07-15T08:10:01.657Z,96.37
2017-07-15T08:11:02.237Z,96.85
2017-07-15T08:12:02.817Z,95.26
2017-07-15T08:13:03.396Z,95.84
2017-07-15T08:14:03.975Z,95.75
2017-07-15T08:15:04.565Z,95.75
2017-07-15T08:16:05.143Z,95.65
2017-07-15T08:17:05.723Z,94.74
2017-07-15T08:18:06.303Z,94.12
2017-07-15T08:19:06.881Z,94.79
2017-07-15T08:20:07.461Z,95.17
2017-07-15T08:21:08.040Z,95.17
2017-07-15T08:22:08.619Z,95.56
2017-07-15T08:23:09.200Z,95.26
2017-07-15T08:24:09.779Z,93.83
2017-07-15T08:25:10.358Z,94.31
2017-07-15T08:26:10.938Z,94.12
2017-07-15T08:27:11.517Z,93.73
2017-07-15T08:28:12.097Z,94.12
2017-07-15T08:29:12.677Z,92.63
2017-07-15T08:30:13.254Z,90.00
2017-07-15T08:31:13.837Z,90.28
2017-07-15T08:32:14.416Z,90.00
2017-07-15T08:33:14.994Z,90.19
2017-07-15T08:34:15.587Z,90.47
2017-07-15T08:35:16.176Z,90.67
2017-07-15T08:36:16.767Z,90.86
2017-07-15T08:37:17.347Z,91.63
2017-07-15T08:38:17.928Z,90.95
2017-07-15T08:39:18.506Z,91.43
2017-07-15T08:40:19.086Z,92.24
2017-07-15T08:41:19.666Z,91.57
2017-07-15T08:42:20.245Z,90.90
2017-07-15T08:43:20.823Z,91.24
2017-07-15T08:44:21.405Z,91.67
2017-07-15T08:45:21.986Z,91.38
2017-07-15T08:46:22.568Z,90.33
2017-07-15T08:47:23.143Z,91.53
2017-07-15T08:48:23.724Z,91.77
2017-07-15T08:49:24.303Z,92.30
2017-07-15T08:50:24.893Z,92.63
2017-07-15T08:51:25.474Z,91.57
2017-07-15T08:52:26.053Z,90.71
2017-07-15T08:53:26.682Z,91.09
2017-07-15T08:54:27.261Z,91.86
2017-07-15T08:55:27.841Z,92.48
2017-07-15T08:56:28.419Z,90.56
2017-07-15T08:57:29.009Z,89.32
2017-07-15T08:58:29.589Z,90.47
2017-07-15T08:59:30.180Z,88.79
2017-07-15T09:00:30.760Z,88.51
2017-07-15T09:01:31.341Z,88.02
2017-07-15T09:02:31.934Z,87.84
2017-07-15T09:03:32.511Z,87.35
2017-07-15T09:04:33.092Z,87.21
2017-07-15T09:05:33.671Z,86.63
2017-07-15T09:06:34.252Z,86.54
2017-07-15T09:07:34.833Z,85.96
2017-07-15T09:08:35.422Z,86.29
2017-07-15T09:09:36.005Z,85.34
2017-07-15T09:10:36.583Z,85.48
2017-07-15T09:11:37.162Z,85.00
2017-07-15T09:12:37.754Z,85.00
2017-07-15T09:13:38.332Z,85.19
2017-07-15T09:14:38.913Z,85.38
2017-07-15T09:15:39.503Z,85.19
2017-07-15T09:16:40.083Z,85.42
2017-07-15T09:17:40.668Z,86.15
2017-07-15T09:18:41.247Z,87.11
2017-07-15T09:19:41.823Z,87.01
2017-07-15T09:20:42.402Z,85.58
2017-07-15T09:21:42.982Z,85.42
2017-07-15T09:22:43.562Z,85.52
2017-07-15T09:23:44.144Z,85.24
2017-07-15T09:24:44.723Z,84.75
2017-07-15T09:25:45.302Z,85.42
2017-07-15T09:26:45.895Z,85.96
2017-07-15T09:27:46.474Z,86.15
2017-07-15T09:28:47.054Z,87.49
2017-07-15T09:29:47.645Z,89.03
2017-07-15T09:30:48.227Z,88.93
2017-07-15T09:31:48.807Z,88.31
2017-07-15T09:32:49.397Z,86.87
2017-07-15T09:33:49.980Z,87.05
2017-07-15T09:34:50.559Z,87.44
2017-07-15T09:35:51.139Z,88.93
2017-07-15T09:36:51.721Z,86.33
2017-07-15T09:37:52.302Z,84.41
2017-07-15T09:38:52.882Z,83.36
2017-07-15T09:39:53.474Z,82.93
2017-07-15T09:40:54.065Z,83.80
2017-07-15T09:41:54.655Z,84.47
2017-07-15T09:42:55.236Z,85.28
2017-07-15T09:43:55.819Z,84.22
2017-07-15T09:44:56.398Z,82.87
2017-07-15T09:45:56.978Z,82.01
2017-07-15T09:46:57.561Z,81.63
2017-07-15T09:47:58.140Z,81.82
2017-07-15T09:48:58.721Z,80.90
2017-07-15T09:49:59.299Z,80.22
2017-07-15T09:50:59.880Z,79.42
2017-07-15T09:52:00.466Z,79.71
2017-07-15T09:53:01.042Z,80.38
2017-07-15T09:54:01.622Z,82.01
2017-07-15T09:55:02.203Z,82.68
2017-07-15T09:56:02.785Z,82.78
2017-07-15T09:57:03.365Z,82.40
2017-07-15T09:58:03.944Z,83.26
2017-07-15T09:59:04.526Z,82.45
2017-07-15T10:00:05.108Z,83.22
2017-07-15T10:01:05.688Z,83.03
2017-07-15T10:02:06.269Z,83.41
2017-07-15T10:03:06.849Z,84.66
2017-07-15T10:04:07.430Z,84.08
2017-07-15T10:05:08.011Z,84.27
2017-07-15T10:06:08.592Z,85.19
2017-07-15T10:07:09.185Z,85.10
2017-07-15T10:08:09.765Z,85.24
2017-07-15T10:09:10.353Z,86.19
2017-07-15T10:10:10.926Z,85.42
2017-07-15T10:11:11.507Z,85.42
2017-07-15T10:12:12.086Z,84.56
2017-07-15T10:13:12.669Z,83.16
2017-07-15T10:14:13.251Z,83.26
2017-07-15T10:15:13.832Z,82.01
2017-07-15T10:16:14.412Z,81.67
2017-07-15T10:17:14.994Z,81.48
2017-07-15T10:18:15.575Z,81.28
2017-07-15T10:19:16.155Z,81.09
2017-07-15T10:20:16.735Z,81.34
2017-07-15T10:21:17.318Z,81.38
2017-07-15T10:22:17.901Z,80.04
2017-07-15T10:23:18.482Z,78.98
2017-07-15T10:24:19.074Z,77.73
2017-07-15T10:25:19.654Z,78.44
2017-07-15T10:26:20.238Z,77.13
2017-07-15T10:27:20.818Z,76.75
2017-07-15T10:28:21.399Z,76.56
2017-07-15T10:29:22.086Z,77.04
2017-07-15T10:30:22.674Z,77.76
2017-07-15T10:31:23.254Z,76.52
2017-07-15T10:32:23.836Z,75.02
2017-07-15T10:33:24.417Z,75.49
2017-07-15T10:34:24.998Z,75.88
2017-07-15T10:35:25.578Z,75.17
2017-07-15T10:36:26.161Z,75.65
2017-07-15T10:37:26.739Z,76.61
2017-07-15T10:38:27.331Z,74.88
2017-07-15T10:39:27.913Z,74.79
2017-07-15T10:40:28.493Z,76.32
2017-07-15T10:41:29.074Z,75.75
2017-07-15T10:42:29.655Z,75.17
2017-07-15T10:43:30.236Z,76.52
2017-07-15T10:44:30.819Z,75.04
2017-07-15T10:45:31.400Z,76.29
2017-07-15T10:46:31.980Z,76.77
2017-07-15T10:47:32.562Z,76.48
2017-07-15T10:48:33.144Z,77.06
2017-07-15T10:49:33.777Z,77.25
2017-07-15T10:50:34.360Z,75.17
2017-07-15T10:51:34.941Z,74.94
2017-07-15T10:52:35.523Z,74.98
2017-07-15T10:53:36.106Z,74.50
2017-07-15T10:54:36.686Z,74.30
2017-07-15T10:55:37.268Z,74.02
2017-07-15T10:56:37.848Z,74.46
2017-07-15T10:57:38.429Z,74.88
2017-07-15T10:58:39.011Z,75.23
2017-07-15T10:59:39.592Z,75.23
2017-07-15T11:00:40.173Z,75.84
2017-07-15T11:01:40.754Z,74.98
2017-07-15T11:02:41.334Z,75.07
2017-07-15T11:03:41.918Z,75.13
2017-07-15T11:04:42.498Z,75.71
2017-07-15T11:05:43.080Z,76.48
2017-07-15T11:06:43.661Z,76.92
2017-07-15T11:07:44.242Z,76.96
2017-07-15T11:08:44.822Z,77.15
2017-07-15T11:09:45.405Z,77.06
2017-07-15T11:10:45.986Z,76.96
2017-07-15T11:11:46.566Z,76.57
2017-07-15T11:12:47.146Z,77.09
2017-07-15T11:13:47.737Z,77.15
2017-07-15T11:14:48.317Z,77.15
2017-07-15T11:15:48.899Z,78.50
2017-07-15T11:16:49.480Z,78.02
2017-07-15T11:17:50.061Z,77.53
2017-07-15T11:18:50.642Z,78.02
2017-07-15T11:19:51.223Z,77.34
2017-07-15T11:20:51.805Z,77.09
2017-07-15T11:21:52.386Z,77.25
2017-07-15T11:22:52.966Z,77.06
2017-07-15T11:23:53.550Z,77.15
2017-07-15T11:24:54.130Z,77.06
2017-07-15T11:25:54.713Z,77.34
2017-07-15T11:26:55.294Z,77.15
2017-07-15T11:27:55.876Z,77.19
2017-07-15T11:28:56.459Z,76.71
2017-07-15T11:29:57.041Z,77.23
2017-07-15T11:30:57.623Z,76.04
2017-07-15T11:31:58.207Z,76.32
2017-07-15T11:32:58.788Z,76.04
2017-07-15T11:33:59.370Z,74.98
2017-07-15T11:34:59.953Z,75.17
2017-07-15T11:36:00.534Z,74.98
2017-07-15T11:37:01.116Z,74.63
2017-07-15T11:38:01.699Z,73.09
2017-07-15T11:39:02.280Z,71.75
2017-07-15T11:40:02.862Z,70.59
2017-07-15T11:41:03.445Z,70.65
2017-07-15T11:42:04.027Z,70.50
2017-07-15T11:43:04.610Z,70.56
2017-07-15T11:44:05.192Z,72.48
2017-07-15T11:45:05.774Z,73.28
2017-07-15T11:46:06.356Z,73.19
2017-07-15T11:47:06.938Z,72.55
2017-07-15T11:48:07.521Z,70.72
2017-07-15T11:49:08.108Z,70.82
2017-07-15T11:50:08.685Z,71.40
2017-07-15T11:51:09.268Z,68.51
2017-07-15T11:52:09.871Z,67.45
2017-07-15T11:53:10.442Z,67.87
2017-07-15T11:54:11.024Z,66.68
2017-07-15T11:55:11.607Z,67.45
2017-07-15T11:56:12.188Z,68.70
2017-07-15T11:57:12.771Z,69.12
2017-07-15T11:58:13.355Z,68.74
2017-07-15T11:59:13.936Z,67.23
2017-07-15T12:00:14.519Z,67.97
2017-07-15T12:01:15.103Z,67.19
2017-07-15T12:02:15.685Z,66.65
2017-07-15T12:03:16.268Z,66.78
2017-07-15T12:04:16.851Z,68.41
2017-07-15T12:05:17.436Z,68.41
2017-07-15T12:06:18.038Z,68.22
2017-07-15T12:07:18.621Z,68.32
2017-07-15T12:08:19.204Z,69.02
2017-07-15T12:09:19.786Z,68.16
2017-07-15T12:10:20.370Z,68.58
2017-07-15T12:11:20.953Z,67.03
2017-07-15T12:12:21.535Z,65.78
2017-07-15T12:13:22.118Z,66.11
2017-07-15T12:14:22.702Z,66.01
2017-07-15T12:15:23.283Z,65.69
2017-07-15T12:16:23.871Z,65.11
2017-07-15T12:17:24.453Z,65.81
2017-07-15T12:18:25.031Z,65.05
2017-07-15T12:19:25.614Z,65.24
2017-07-15T12:20:26.197Z,65.78
2017-07-15T12:21:26.780Z,67.61
2017-07-15T12:22:27.363Z,68.16
2017-07-15T12:23:27.958Z,69.60
2017-07-15T12:24:28.540Z,68.44
2017-07-15T12:25:29.123Z,68.26
2017-07-15T12:26:29.708Z,67.87
2017-07-15T12:27:30.289Z,66.68
2017-07-15T12:28:30.872Z,66.97
2017-07-15T12:29:31.456Z,67.00
2017-07-15T12:30:32.039Z,66.36
2017-07-15T12:31:32.620Z,65.78
2017-07-15T12:32:33.214Z,65.46
2017-07-15T12:33:33.796Z,64.47
2017-07-15T12:34:34.391Z,64.86
2017-07-15T12:35:34.979Z,64.40
2017-07-15T12:36:35.563Z,64.79
2017-07-15T12:37:36.145Z,66.07
2017-07-15T12:38:36.728Z,65.69
2017-07-15T12:39:37.321Z,65.20
2017-07-15T12:40:37.906Z,64.50
2017-07-15T12:41:38.490Z,64.95
2017-07-15T12:42:39.071Z,65.27
2017-07-15T12:43:39.654Z,64.21
2017-07-15T12:44:40.236Z,64.02
2017-07-15T12:45:40.821Z,64.34
2017-07-15T12:46:41.402Z,63.12
2017-07-15T12:47:41.986Z,63.09
2017-07-15T12:48:42.571Z,63.28
2017-07-15T12:49:43.154Z,64.43
2017-07-15T12:50:43.737Z,63.85
2017-07-15T12:51:44.321Z,63.95
2017-07-15T12:52:44.903Z,62.83
2017-07-15T12:53:45.486Z,62.93
2017-07-15T12:54:46.070Z,61.07
2017-07-15T12:55:46.664Z,60.97
2017-07-15T12:56:47.249Z,60.55
2017-07-15T12:57:47.831Z,60.75
2017-07-15T12:58:48.413Z,61.22
2017-07-15T12:59:48.996Z,61.74